Terminal Aerodrome Forecast
Issued by NWS Northern Indiana

Home | Current Version | Previous Version | Graphics & Text | Print | Product List | Glossary On
Versions: 1 2 3 4 5 6 7 8 9 10 11 12 13 14
000
FTUS43 KIWX 232300
TAFFWA
TAF
KFWA 232320Z 2400/2424 20003KT P6SM BKN150
     FM240800 19003KT 5SM BR BKN150
     FM241400 23007KT P6SM BKN035
     FM241800 22005KT P6SM BKN025=

USA.gov is the U.S. government's official web portal to all federal, state and local government web resources and services.